Strona główna
METAR-TAF:

METAR-TAF

Lotnisko :

Port lotniczy Tunis

Tunis, Tunezja

Szerokość geograficzna: 36-50N, Długość geograficzna: 010-14E, wysokość: 3 m

Aktualna obserwacja pogody

Raport powstał 48 minut temu, godzina 05:30 UTC
Wiatr 14 kt od zachodnio-północny zachód
Temperatura 15°C
Wilgotność 67%
Ciśnienie 1021 hPa
Widzialność 10 km lub więcej
Rozproszone chmury na wysokości 2300 ft

METAR: DTTA 100530Z 29014KT 9999 SCT023 15/09 Q1021

czas: 07:18 (06:18 UTC)

Prognoza

Raport powstał 1 godzina i 18 minut temu, godzina 05:00 UTC
Prognoza ważna od 10 godzina 06 UTC do 11 godzina 06 UTC
Wiatr 15 kt od zachód w porywach dochodzący do 30 kt
Widzialność 10 km lub więcej
Rozproszone chmury na wysokości 2300 ft
Stopniowe zmiany
od 10 godzina 10 UTC do 10 godzina 12 UTC
Wiatr 22 kt od północny zachód w porywach dochodzący do 40 kt
Stopniowe zmiany
od 11 godzina 02 UTC do 11 godzina 04 UTC
Wiatr 15 kt od zachodnio-północny zachód

TAF: DTTA 100500Z 1006/1106 27015G30KT 9999 SCT023 BECMG 1010/1012 31022G40KT BECMG 1102/1104 30015KT

Obserwacja i prognoza pogody dla ponad 4000 lotnisk (raport METAR i TAF).

Dostępne stacje oznaczono żółtymi i czerwonymi punktami na mapie.

Najedź kursorem aby zobaczyć nazwę stacji.

Kliknij aby zobaczyć obserwacje i prognozy pogody.

Aby zmienić mapę: kliknij na zielony przycisk z czarnym krzyżykiem, aby powiększyć; na zielony przycisk z myślnikiem, aby pomniejszyć; na zielone strzałki, aby przejść do map sąsiednich.


METAR-TAF: